createdAt,value
2018-05-24T00:00:23.138Z,16.42
2018-05-24T00:01:24.252Z,15.05
2018-05-24T00:02:25.371Z,20.42
2018-05-24T00:03:27.175Z,14.30
2018-05-24T00:04:28.272Z,16.45
2018-05-24T00:05:29.351Z,16.35
2018-05-24T00:06:30.439Z,19.85
2018-05-24T00:07:31.502Z,14.60
2018-05-24T00:08:32.559Z,19.17
2018-05-24T00:09:33.639Z,15.50
2018-05-24T00:10:34.709Z,18.58
2018-05-24T00:11:35.796Z,14.00
2018-05-24T00:12:36.873Z,17.00
2018-05-24T00:13:37.959Z,16.55
2018-05-24T00:14:39.037Z,19.02
2018-05-24T00:15:40.103Z,17.25
2018-05-24T00:16:41.956Z,20.15
2018-05-24T00:17:43.782Z,18.02
2018-05-24T00:18:44.853Z,15.95
2018-05-24T00:20:55.395Z,19.08
2018-05-24T00:21:57.231Z,14.13
2018-05-24T00:22:59.090Z,15.73
2018-05-24T00:24:00.161Z,20.20
2018-05-24T00:25:01.235Z,16.42
2018-05-24T00:26:02.291Z,18.75
2018-05-24T00:27:04.098Z,16.12
2018-05-24T00:28:05.188Z,13.32
2018-05-24T00:29:06.255Z,17.83
2018-05-24T00:30:07.319Z,16.02
2018-05-24T00:31:08.406Z,17.30
2018-05-24T00:32:09.475Z,18.73
2018-05-24T00:33:10.542Z,20.30
2018-05-24T00:34:12.363Z,18.30
2018-05-24T00:35:13.443Z,18.35
2018-05-24T00:36:14.518Z,17.73
2018-05-24T00:37:15.590Z,17.98
2018-05-24T00:38:16.667Z,18.30
2018-05-24T00:39:17.723Z,17.35
2018-05-24T00:40:18.795Z,18.23
2018-05-24T00:41:19.866Z,20.08
2018-05-24T00:42:20.935Z,17.55
2018-05-24T00:43:22.017Z,21.37
2018-05-24T00:44:23.101Z,17.17
2018-05-24T00:45:24.181Z,18.90
2018-05-24T00:46:25.247Z,19.83
2018-05-24T00:47:27.103Z,19.45
2018-05-24T00:48:28.187Z,21.98
2018-05-24T00:49:29.267Z,21.30
2018-05-24T00:50:31.094Z,18.80
2018-05-24T00:51:32.158Z,22.42
2018-05-24T00:52:33.975Z,21.08
2018-05-24T00:53:35.047Z,20.05
2018-05-24T00:54:36.890Z,13.88
2018-05-24T00:55:40.871Z,16.08
2018-05-24T00:56:41.945Z,17.08
2018-05-24T00:57:43.002Z,19.42
2018-05-24T00:58:44.063Z,18.27
2018-05-24T00:59:45.160Z,18.67
2018-05-24T01:00:46.251Z,14.70
2018-05-24T01:01:48.067Z,20.77
2018-05-24T01:02:49.142Z,17.05
2018-05-24T01:03:50.246Z,12.00
2018-05-24T01:04:51.319Z,17.85
2018-05-24T01:05:52.381Z,16.23
2018-05-24T01:06:53.459Z,17.60
2018-05-24T01:07:54.559Z,18.98
2018-05-24T01:08:55.648Z,16.95
2018-05-24T01:09:56.759Z,20.27
2018-05-24T01:10:58.570Z,17.37
2018-05-24T01:11:59.655Z,16.23
2018-05-24T01:13:00.755Z,19.67
2018-05-24T01:14:01.829Z,14.23
2018-05-24T01:15:02.909Z,18.17
2018-05-24T01:16:04.001Z,15.95
2018-05-24T01:17:05.102Z,21.85
2018-05-24T01:18:06.919Z,20.12
2018-05-24T01:19:07.982Z,19.95
2018-05-24T01:20:09.831Z,17.33
2018-05-24T01:21:10.931Z,15.43
2018-05-24T01:22:12.782Z,21.48
2018-05-24T01:23:13.874Z,19.87
2018-05-24T01:24:14.980Z,17.95
2018-05-24T01:25:16.071Z,20.52
2018-05-24T01:26:17.153Z,18.52
2018-05-24T01:27:18.963Z,18.33
2018-05-24T01:28:20.075Z,18.98
2018-05-24T01:29:21.252Z,19.73
2018-05-24T01:30:22.336Z,19.20
2018-05-24T01:31:23.435Z,21.80
2018-05-24T01:32:25.281Z,20.05
2018-05-24T01:33:27.113Z,22.20
2018-05-24T01:34:28.329Z,23.00
2018-05-24T01:35:29.522Z,18.60
2018-05-24T01:38:02.263Z,17.50
2018-05-24T01:39:03.357Z,23.05
2018-05-24T01:40:04.426Z,18.10
2018-05-24T01:41:05.491Z,18.52
2018-05-24T01:42:06.586Z,18.73
2018-05-24T01:43:07.655Z,21.85
2018-05-24T01:44:08.747Z,16.98
2018-05-24T01:45:09.834Z,21.17
2018-05-24T01:46:10.914Z,22.10
2018-05-24T01:47:11.991Z,19.70
2018-05-24T01:48:13.080Z,18.48
2018-05-24T01:49:14.152Z,19.75
2018-05-24T01:50:15.239Z,22.00
2018-05-24T01:51:16.295Z,21.70
2018-05-24T01:52:18.123Z,23.35
2018-05-24T01:53:19.206Z,20.05
2018-05-24T01:54:20.275Z,20.92
2018-05-24T01:55:21.347Z,20.50
2018-05-24T01:56:22.428Z,22.33
2018-05-24T01:57:23.518Z,20.20
2018-05-24T01:58:24.622Z,19.40
2018-05-24T01:59:25.683Z,19.87
2018-05-24T02:00:27.491Z,22.15
2018-05-24T02:01:28.560Z,22.90
2018-05-24T02:02:29.657Z,19.90
2018-05-24T02:03:30.731Z,22.17
2018-05-24T02:04:31.791Z,23.58
2018-05-24T02:05:32.855Z,20.23
2018-05-24T02:06:33.942Z,20.27
2018-05-24T02:07:35.012Z,19.33
2018-05-24T02:08:36.067Z,20.30
2018-05-24T02:09:37.902Z,17.27
2018-05-24T02:10:38.971Z,18.83
2018-05-24T02:11:40.054Z,23.17
2018-05-24T02:12:41.130Z,19.98
2018-05-24T02:13:42.220Z,22.27
2018-05-24T02:14:43.292Z,16.15
2018-05-24T02:15:45.109Z,20.33
2018-05-24T02:16:46.163Z,17.75
2018-05-24T02:17:47.836Z,19.73
2018-05-24T02:18:48.919Z,22.05
2018-05-24T02:19:49.983Z,19.52
2018-05-24T02:20:51.063Z,17.10
2018-05-24T02:21:52.143Z,14.20
2018-05-24T02:22:53.194Z,17.70
2018-05-24T02:23:54.259Z,15.38
2018-05-24T02:24:55.310Z,18.52
2018-05-24T02:25:56.363Z,15.45
2018-05-24T02:26:57.430Z,18.95
2018-05-24T02:27:58.503Z,18.40
2018-05-24T02:28:59.656Z,21.25
2018-05-24T02:30:00.728Z,19.85
2018-05-24T02:31:01.783Z,15.70
2018-05-24T02:32:02.867Z,18.35
2018-05-24T02:33:04.675Z,19.17
2018-05-24T02:34:05.755Z,14.27
2018-05-24T02:35:07.548Z,17.83
2018-05-24T02:36:08.721Z,19.00
2018-05-24T02:37:10.432Z,13.88
2018-05-24T02:38:11.522Z,18.35
2018-05-24T02:39:13.328Z,20.75
2018-05-24T02:40:14.393Z,18.60
2018-05-24T02:41:16.287Z,21.52
2018-05-24T02:42:17.377Z,21.00
2018-05-24T02:43:19.199Z,17.60
2018-05-24T02:44:20.261Z,17.48
2018-05-24T02:45:21.315Z,20.37
2018-05-24T02:46:22.406Z,19.15
2018-05-24T02:47:24.233Z,19.02
2018-05-24T02:48:25.337Z,22.67
2018-05-24T02:49:26.406Z,20.52
2018-05-24T02:50:27.499Z,17.15
2018-05-24T02:51:28.580Z,18.25
2018-05-24T02:52:29.626Z,16.20
2018-05-24T02:53:30.710Z,20.92
2018-05-24T02:54:31.779Z,17.20
2018-05-24T02:55:32.848Z,19.50
2018-05-24T02:56:34.658Z,20.98
2018-05-24T02:57:35.725Z,19.27
2018-05-24T02:58:36.820Z,24.30
2018-05-24T02:59:37.895Z,20.80
2018-05-24T03:00:38.983Z,19.20
2018-05-24T03:01:40.110Z,21.37
2018-05-24T03:02:41.160Z,18.92
2018-05-24T03:03:42.203Z,19.70
2018-05-24T03:04:43.291Z,18.90
2018-05-24T03:05:44.362Z,20.35
2018-05-24T03:06:45.419Z,18.08
2018-05-24T03:07:46.499Z,19.12
2018-05-24T03:08:47.571Z,19.20
2018-05-24T03:09:48.662Z,20.25
2018-05-24T03:10:49.737Z,20.20
2018-05-24T03:11:51.566Z,16.98
2018-05-24T03:12:52.661Z,15.40
2018-05-24T03:13:53.745Z,19.85
2018-05-24T03:14:54.815Z,17.65
2018-05-24T03:15:55.884Z,18.12
2018-05-24T03:16:56.970Z,16.45
2018-05-24T03:17:58.047Z,20.73
2018-05-24T03:18:59.124Z,16.75
2018-05-24T03:20:00.210Z,20.23
2018-05-24T03:21:01.290Z,18.90
2018-05-24T03:22:02.361Z,16.87
2018-05-24T03:23:03.447Z,21.45
2018-05-24T03:24:04.523Z,16.37
2018-05-24T03:25:05.736Z,16.65
2018-05-24T03:26:06.926Z,16.73
2018-05-24T03:27:08.015Z,20.00
2018-05-24T03:28:09.079Z,18.33
2018-05-24T03:29:10.157Z,18.45
2018-05-24T03:30:11.240Z,16.65
2018-05-24T03:31:13.080Z,17.80
2018-05-24T03:32:14.142Z,19.02
2018-05-24T03:33:15.221Z,19.85
2018-05-24T03:34:16.516Z,16.17
2018-05-24T03:35:17.587Z,22.62
2018-05-24T03:36:18.673Z,18.12
2018-05-24T03:37:20.494Z,19.30
2018-05-24T03:38:21.575Z,18.60
2018-05-24T03:39:22.692Z,18.42
2018-05-24T03:40:23.767Z,21.77
2018-05-24T03:41:24.887Z,21.02
2018-05-24T03:42:25.992Z,17.25
2018-05-24T03:43:27.796Z,20.35
2018-05-24T03:44:28.878Z,22.85
2018-05-24T03:45:29.976Z,19.37
2018-05-24T03:46:31.831Z,24.67
2018-05-24T03:47:32.894Z,29.27
2018-05-24T03:48:33.960Z,23.23
2018-05-24T03:49:35.068Z,26.23
2018-05-24T03:50:36.173Z,24.02
2018-05-24T03:51:37.251Z,21.00
2018-05-24T03:52:38.335Z,26.15
2018-05-24T03:53:39.422Z,18.58
2018-05-24T03:54:40.509Z,22.30
2018-05-24T03:55:41.594Z,17.87
2018-05-24T03:56:42.668Z,20.30
2018-05-24T03:57:43.739Z,20.52
2018-05-24T03:58:44.879Z,18.05
2018-05-24T04:00:07.755Z,17.87
2018-05-24T04:01:21.049Z,22.15
2018-05-24T04:02:34.291Z,18.98
2018-05-24T04:03:47.392Z,22.33
2018-05-24T04:04:49.487Z,17.60
2018-05-24T04:05:51.307Z,21.42
2018-05-24T04:06:52.398Z,21.00
2018-05-24T04:07:53.487Z,19.08
2018-05-24T04:08:54.591Z,21.60
2018-05-24T04:09:55.678Z,20.05
2018-05-24T04:10:57.483Z,22.70
2018-05-24T04:11:58.568Z,19.37
2018-05-24T04:12:59.654Z,19.92
2018-05-24T04:14:00.743Z,20.73
2018-05-24T04:15:01.852Z,19.95
2018-05-24T04:16:03.690Z,17.48
2018-05-24T04:17:04.776Z,17.25
2018-05-24T04:18:05.867Z,20.88
2018-05-24T04:19:06.940Z,18.10
2018-05-24T04:20:08.142Z,20.02
2018-05-24T04:21:09.250Z,21.90
2018-05-24T04:22:10.322Z,18.60
2018-05-24T04:23:11.432Z,21.67
2018-05-24T04:24:12.503Z,18.15
2018-05-24T04:25:13.607Z,24.58
2018-05-24T04:26:14.711Z,22.52
2018-05-24T04:27:16.563Z,20.05
2018-05-24T04:28:17.647Z,20.35
2018-05-24T04:29:18.738Z,22.77
2018-05-24T04:30:20.577Z,18.30
2018-05-24T04:31:21.676Z,18.58
2018-05-24T04:32:22.787Z,19.10
2018-05-24T04:33:23.886Z,20.45
2018-05-24T04:34:25.028Z,21.95
2018-05-24T04:35:26.860Z,22.10
2018-05-24T04:36:27.947Z,26.73
2018-05-24T04:37:29.039Z,18.00
2018-05-24T04:38:30.878Z,24.60
2018-05-24T04:39:31.954Z,20.85
2018-05-24T04:40:33.055Z,19.33
2018-05-24T04:41:34.864Z,24.45
2018-05-24T04:42:35.947Z,23.10
2018-05-24T04:43:37.041Z,19.60
2018-05-24T04:44:38.116Z,21.45
2018-05-24T04:45:39.183Z,21.35
2018-05-24T04:46:40.264Z,17.62
2018-05-24T04:47:42.153Z,19.52
2018-05-24T04:48:43.969Z,23.95
2018-05-24T04:49:45.761Z,26.27
2018-05-24T04:50:46.863Z,22.08
2018-05-24T04:51:47.955Z,23.05
2018-05-24T04:52:49.054Z,23.02
2018-05-24T04:53:50.133Z,23.60
2018-05-24T04:54:51.228Z,22.58
2018-05-24T04:55:52.311Z,21.75
2018-05-24T04:56:53.434Z,19.12
2018-05-24T04:57:55.282Z,21.67
2018-05-24T04:58:56.371Z,23.15
2018-05-24T04:59:57.451Z,20.23
2018-05-24T05:00:59.307Z,22.67
2018-05-24T05:02:00.391Z,19.90
2018-05-24T05:03:01.457Z,21.12
2018-05-24T05:04:02.544Z,18.27
2018-05-24T05:05:03.604Z,24.70
2018-05-24T05:06:04.694Z,23.77
2018-05-24T05:07:05.791Z,22.83
2018-05-24T05:08:07.619Z,18.35
2018-05-24T05:09:08.716Z,21.85
2018-05-24T05:10:09.805Z,21.58
2018-05-24T05:11:10.919Z,19.65
2018-05-24T05:12:11.995Z,20.98
2018-05-24T05:13:13.104Z,24.45
2018-05-24T05:14:14.227Z,19.80
2018-05-24T05:15:15.331Z,24.05
2018-05-24T05:16:16.405Z,19.40
2018-05-24T05:17:18.230Z,23.95
2018-05-24T05:18:20.063Z,20.20
2018-05-24T05:19:21.205Z,19.42
2018-05-24T05:20:22.323Z,21.15
2018-05-24T05:21:23.432Z,23.58
2018-05-24T05:22:24.572Z,21.87
2018-05-24T05:23:26.470Z,17.55
2018-05-24T05:24:27.459Z,20.00
2018-05-24T05:25:28.535Z,22.83
2018-05-24T05:26:29.606Z,21.08
2018-05-24T05:27:30.699Z,20.35
2018-05-24T05:28:31.776Z,23.70
2018-05-24T05:29:33.603Z,20.20
2018-05-24T05:30:35.523Z,17.10
2018-05-24T05:31:36.517Z,20.23
2018-05-24T05:32:37.596Z,20.10
2018-05-24T05:33:38.679Z,19.45
2018-05-24T05:34:39.766Z,20.60
2018-05-24T05:35:40.855Z,22.98
2018-05-24T05:36:41.937Z,23.00
2018-05-24T05:37:43.760Z,21.33
2018-05-24T05:38:44.862Z,21.30
2018-05-24T05:39:45.940Z,21.02
2018-05-24T05:40:47.032Z,23.08
2018-05-24T05:41:48.115Z,17.35
2018-05-24T05:42:49.195Z,22.45
2018-05-24T05:43:50.311Z,23.65
2018-05-24T05:44:51.401Z,19.90
2018-05-24T05:45:52.527Z,20.35
2018-05-24T05:46:53.610Z,21.23
2018-05-24T05:47:54.675Z,24.08
2018-05-24T05:48:55.739Z,21.25
2018-05-24T05:49:57.647Z,23.87
2018-05-24T05:50:58.732Z,23.40
2018-05-24T05:52:00.637Z,22.08
2018-05-24T05:53:01.640Z,23.98
2018-05-24T05:54:02.713Z,20.45
2018-05-24T05:55:03.784Z,22.15
2018-05-24T05:56:05.609Z,18.23
2018-05-24T05:57:06.719Z,20.37
2018-05-24T05:58:07.798Z,19.20
2018-05-24T05:59:09.623Z,23.08
2018-05-24T06:00:10.725Z,21.08
2018-05-24T06:01:11.815Z,18.50
2018-05-24T06:02:13.651Z,19.20
2018-05-24T06:03:14.759Z,24.02
2018-05-24T06:04:15.890Z,17.95
2018-05-24T06:05:17.027Z,21.67
2018-05-24T06:06:18.158Z,17.17
2018-05-24T06:07:19.296Z,23.52
2018-05-24T06:08:20.394Z,20.52
2018-05-24T06:09:21.459Z,19.58
2018-05-24T06:10:22.535Z,20.73
2018-05-24T06:11:23.679Z,20.58
2018-05-24T06:12:24.836Z,22.70
2018-05-24T06:13:25.925Z,20.75
2018-05-24T06:14:27.046Z,20.45
2018-05-24T06:15:28.916Z,24.55
2018-05-24T06:16:30.744Z,21.45
2018-05-24T06:17:31.843Z,21.10
2018-05-24T06:18:32.924Z,19.70
2018-05-24T06:19:34.762Z,24.77
2018-05-24T06:20:35.880Z,23.10
2018-05-24T06:21:36.994Z,22.67
2018-05-24T06:22:38.079Z,20.25
2018-05-24T06:23:39.177Z,23.60
2018-05-24T06:24:40.285Z,16.70
2018-05-24T06:25:41.373Z,24.17
2018-05-24T06:26:42.457Z,21.80
2018-05-24T06:27:43.599Z,23.00
2018-05-24T06:28:44.703Z,20.92
2018-05-24T06:29:45.787Z,24.10
2018-05-24T06:30:47.651Z,21.92
2018-05-24T06:31:48.740Z,25.05
2018-05-24T06:32:49.839Z,18.37
2018-05-24T06:33:50.933Z,23.58
2018-05-24T06:34:52.042Z,18.75
2018-05-24T06:35:53.116Z,21.95
2018-05-24T06:36:54.212Z,23.60
2018-05-24T06:37:56.058Z,22.45
2018-05-24T06:38:57.196Z,24.30
2018-05-24T06:39:58.298Z,21.62
2018-05-24T06:40:59.407Z,20.17
2018-05-24T06:42:00.583Z,24.15
2018-05-24T06:43:01.716Z,21.50
2018-05-24T06:44:02.951Z,25.45
2018-05-24T06:45:04.140Z,23.80
2018-05-24T06:46:05.971Z,21.73
2018-05-24T06:47:07.860Z,21.58
2018-05-24T06:48:09.008Z,20.98
2018-05-24T06:49:10.100Z,21.75
2018-05-24T06:50:11.947Z,22.87
2018-05-24T06:51:13.055Z,21.23
2018-05-24T06:52:14.156Z,19.40
2018-05-24T06:53:15.240Z,24.25
2018-05-24T06:54:16.324Z,20.60
2018-05-24T06:55:17.395Z,22.37
2018-05-24T06:56:18.483Z,22.45
2018-05-24T06:57:19.576Z,21.48
2018-05-24T06:58:20.659Z,22.55
2018-05-24T06:59:21.750Z,23.05
2018-05-24T07:00:22.838Z,21.08
2018-05-24T07:01:23.960Z,19.52
2018-05-24T07:02:25.060Z,22.13
2018-05-24T07:03:26.158Z,20.55
2018-05-24T07:04:28.007Z,24.27
2018-05-24T07:05:29.096Z,19.25
2018-05-24T07:06:30.257Z,22.17
2018-05-24T07:07:31.365Z,17.30
2018-05-24T07:08:32.478Z,24.50
2018-05-24T07:09:33.605Z,24.15
2018-05-24T07:10:34.805Z,22.48
2018-05-24T07:11:35.919Z,22.45
2018-05-24T07:12:37.047Z,19.00
2018-05-24T07:13:38.196Z,22.67
2018-05-24T07:14:39.413Z,16.40
2018-05-24T07:15:40.524Z,20.83
2018-05-24T07:16:41.616Z,22.52
2018-05-24T07:17:42.712Z,20.98
2018-05-24T07:18:43.924Z,22.87
2018-05-24T07:19:45.026Z,22.77
2018-05-24T07:20:46.881Z,23.80
2018-05-24T07:21:48.002Z,25.60
2018-05-24T07:22:49.088Z,23.17
2018-05-24T07:23:50.175Z,21.35
2018-05-24T07:24:51.231Z,25.30
2018-05-24T07:25:52.294Z,18.90
2018-05-24T07:26:53.370Z,28.05
2018-05-24T07:27:54.437Z,22.65
2018-05-24T07:28:55.500Z,23.45
2018-05-24T07:29:56.573Z,23.73
2018-05-24T07:30:58.374Z,23.67
2018-05-24T07:31:59.454Z,21.85
2018-05-24T07:33:01.279Z,22.98
2018-05-24T07:34:02.347Z,24.33
2018-05-24T07:35:03.446Z,20.33
2018-05-24T07:36:04.535Z,25.33
2018-05-24T07:37:05.637Z,45.17
2018-05-24T07:38:06.713Z,31.73
2018-05-24T07:39:07.819Z,24.90
2018-05-24T07:40:08.895Z,24.95
2018-05-24T07:41:10.027Z,24.00
2018-05-24T07:42:11.094Z,21.75
2018-05-24T07:43:12.933Z,22.10
2018-05-24T07:44:14.740Z,22.25
2018-05-24T07:45:15.803Z,28.08
2018-05-24T07:46:17.633Z,23.30
2018-05-24T07:47:18.706Z,23.15
2018-05-24T07:48:20.527Z,25.42
2018-05-24T07:49:21.590Z,25.37
2018-05-24T07:50:22.660Z,27.10
2018-05-24T07:51:23.745Z,28.50
2018-05-24T07:52:25.549Z,27.30
2018-05-24T07:53:26.638Z,24.15
2018-05-24T07:54:28.427Z,23.12
2018-05-24T07:55:29.515Z,23.52
2018-05-24T07:56:30.607Z,22.62
2018-05-24T07:57:31.673Z,19.85
2018-05-24T07:58:33.474Z,28.48
2018-05-24T07:59:34.567Z,28.23
2018-05-24T08:00:36.472Z,27.70
2018-05-24T08:01:37.564Z,28.17
2018-05-24T08:02:38.631Z,28.23
2018-05-24T08:03:39.715Z,27.83
2018-05-24T08:04:40.819Z,26.40
2018-05-24T08:05:41.884Z,27.08
2018-05-24T08:06:42.955Z,24.73
2018-05-24T08:07:44.096Z,25.42
2018-05-24T08:08:45.288Z,27.45
2018-05-24T08:09:46.315Z,19.50
2018-05-24T08:10:47.393Z,23.92
2018-05-24T08:11:48.489Z,24.77
2018-05-24T08:12:49.590Z,28.27
2018-05-24T08:13:50.668Z,28.50
2018-05-24T08:14:51.886Z,26.48
2018-05-24T08:15:52.834Z,24.55
2018-05-24T08:16:54.640Z,32.05
2018-05-24T08:17:55.713Z,25.37
2018-05-24T08:18:56.791Z,27.27
2018-05-24T08:19:58.605Z,28.58
2018-05-24T08:20:59.692Z,27.10
2018-05-24T08:22:01.537Z,28.58
2018-05-24T08:23:02.623Z,28.98
2018-05-24T08:24:04.236Z,26.55
2018-05-24T08:25:05.369Z,32.38
2018-05-24T08:27:14.234Z,27.50
2018-05-24T08:28:15.303Z,26.10
2018-05-24T08:29:17.135Z,30.88
2018-05-24T08:30:18.229Z,26.90
2018-05-24T08:31:20.081Z,34.88
2018-05-24T08:32:21.163Z,31.52
2018-05-24T08:33:22.231Z,31.70
2018-05-24T08:34:23.307Z,25.62
2018-05-24T08:35:24.395Z,27.23
2018-05-24T08:36:25.501Z,31.80
2018-05-24T08:37:26.578Z,25.62
2018-05-24T08:38:27.671Z,26.60
2018-05-24T08:39:28.779Z,23.33
2018-05-24T08:40:30.568Z,22.55
2018-05-24T08:41:31.607Z,21.92
2018-05-24T08:42:32.696Z,24.80
2018-05-24T08:43:33.788Z,24.42
2018-05-24T08:44:34.887Z,22.77
2018-05-24T08:45:35.952Z,21.17
2018-05-24T08:46:37.035Z,27.40
2018-05-24T08:47:38.100Z,29.60
2018-05-24T08:48:39.186Z,26.92
2018-05-24T08:49:40.934Z,28.40
2018-05-24T08:50:42.032Z,30.45
2018-05-24T08:51:43.112Z,23.92
2018-05-24T08:52:44.939Z,24.55
2018-05-24T08:53:45.995Z,23.08
2018-05-24T08:54:47.071Z,26.20
2018-05-24T08:55:48.131Z,31.80
2018-05-24T08:56:49.259Z,27.75
2018-05-24T08:57:51.149Z,27.20
2018-05-24T08:58:52.956Z,22.40
2018-05-24T08:59:54.039Z,20.75
2018-05-24T09:00:55.122Z,24.75
2018-05-24T09:01:56.191Z,22.60
2018-05-24T09:02:57.272Z,30.10
2018-05-24T09:03:58.338Z,27.13
2018-05-24T09:04:59.431Z,29.10
2018-05-24T09:06:01.503Z,29.15
2018-05-24T09:07:02.570Z,25.40
2018-05-24T09:08:03.650Z,27.90
2018-05-24T09:09:04.755Z,32.30
2018-05-24T09:10:05.837Z,22.48
2018-05-24T09:11:06.907Z,24.10
2018-05-24T09:12:08.719Z,26.52
2018-05-24T09:13:09.814Z,21.60
2018-05-24T09:14:10.932Z,22.62
2018-05-24T09:15:12.011Z,29.67
2018-05-24T09:16:13.087Z,19.85
2018-05-24T09:17:14.896Z,22.52
2018-05-24T09:18:15.975Z,22.25
2018-05-24T09:19:17.047Z,21.02
2018-05-24T09:20:18.272Z,22.42
2018-05-24T09:21:19.232Z,20.33
2018-05-24T09:22:20.287Z,24.27
2018-05-24T09:23:22.100Z,28.15
2018-05-24T09:24:23.172Z,23.52
2018-05-24T09:25:24.987Z,22.25
2018-05-24T09:26:26.041Z,26.17
2018-05-24T09:27:27.839Z,24.10
2018-05-24T09:28:28.894Z,27.50
2018-05-24T09:29:29.977Z,26.45
2018-05-24T09:30:31.046Z,26.52
2018-05-24T09:31:32.132Z,26.35
2018-05-24T09:32:33.939Z,27.27
2018-05-24T09:33:35.010Z,30.17
2018-05-24T09:34:36.835Z,23.35
2018-05-24T09:35:37.908Z,22.73
2018-05-24T09:36:39.010Z,26.65
2018-05-24T09:37:40.071Z,24.48
2018-05-24T09:38:41.131Z,21.45
2018-05-24T09:39:42.195Z,27.55
2018-05-24T09:40:43.325Z,27.70
2018-05-24T09:41:44.448Z,24.52
2018-05-24T09:42:45.546Z,19.27
2018-05-24T09:43:46.621Z,23.75
2018-05-24T09:44:47.682Z,20.80
2018-05-24T09:45:49.540Z,22.00
2018-05-24T09:46:50.602Z,24.67
2018-05-24T09:47:51.662Z,24.75
2018-05-24T09:48:52.772Z,25.08
2018-05-24T09:49:53.853Z,25.08
2018-05-24T09:50:54.937Z,26.62
2018-05-24T09:51:56.010Z,26.85
2018-05-24T09:52:57.068Z,24.87
2018-05-24T09:53:58.866Z,24.85
2018-05-24T09:54:59.922Z,27.27
2018-05-24T09:56:01.023Z,19.87
2018-05-24T09:57:02.090Z,24.17
2018-05-24T09:58:03.263Z,20.52
2018-05-24T09:59:04.346Z,23.30
2018-05-24T10:00:05.454Z,22.42
2018-05-24T10:01:06.555Z,21.20
2018-05-24T10:02:07.614Z,20.48
2018-05-24T10:03:08.677Z,21.02
2018-05-24T10:04:09.715Z,25.75
2018-05-24T10:05:10.779Z,18.52
2018-05-24T10:06:11.868Z,25.75
2018-05-24T10:07:12.900Z,22.42
2018-05-24T10:08:13.968Z,24.25
2018-05-24T10:09:15.794Z,25.55
2018-05-24T10:10:16.850Z,22.95
2018-05-24T10:11:17.941Z,25.73
2018-05-24T10:12:19.005Z,26.00
2018-05-24T10:13:20.805Z,28.05
2018-05-24T10:14:21.882Z,29.48
2018-05-24T10:15:23.743Z,24.55
2018-05-24T10:16:24.977Z,19.45
2018-05-24T10:17:25.895Z,24.70
2018-05-24T10:18:26.959Z,24.45
2018-05-24T10:19:28.034Z,18.27
2018-05-24T10:20:29.163Z,18.60
2018-05-24T10:21:30.259Z,17.25
2018-05-24T10:22:31.334Z,19.40
2018-05-24T10:23:32.404Z,21.35
2018-05-24T10:24:33.479Z,23.87
2018-05-24T10:25:34.568Z,20.20
2018-05-24T10:26:36.380Z,20.77
2018-05-24T10:27:37.477Z,21.25
2018-05-24T10:28:38.548Z,23.77
2018-05-24T10:29:39.653Z,20.75
2018-05-24T10:30:40.737Z,23.23
2018-05-24T10:31:41.875Z,17.00
2018-05-24T10:32:42.970Z,19.60
2018-05-24T10:33:44.067Z,20.33
2018-05-24T10:34:45.139Z,23.85
2018-05-24T10:35:46.275Z,23.10
2018-05-24T10:36:47.383Z,20.83
2018-05-24T10:37:48.444Z,25.02
2018-05-24T10:38:50.175Z,19.87
2018-05-24T10:39:51.239Z,16.75
2018-05-24T10:40:52.324Z,18.33
2018-05-24T10:41:53.416Z,19.23
2018-05-24T10:42:54.510Z,19.27
2018-05-24T10:43:55.625Z,19.15
2018-05-24T10:44:56.719Z,24.23
2018-05-24T10:45:57.803Z,23.87
2018-05-24T10:46:58.871Z,21.23
2018-05-24T10:48:00.712Z,18.55
2018-05-24T10:49:01.791Z,19.92
2018-05-24T10:50:02.869Z,19.80
2018-05-24T10:51:03.961Z,21.23
2018-05-24T10:52:05.007Z,18.12
2018-05-24T10:53:06.139Z,21.10
2018-05-24T10:54:07.293Z,19.62
2018-05-24T10:55:09.027Z,19.87
2018-05-24T10:56:10.208Z,19.15
2018-05-24T10:57:11.208Z,16.30
2018-05-24T10:58:12.281Z,18.27
2018-05-24T10:59:13.340Z,18.58
2018-05-24T11:00:14.428Z,14.45
2018-05-24T11:01:16.270Z,18.42
2018-05-24T11:02:18.103Z,17.87
2018-05-24T11:03:19.226Z,19.73
2018-05-24T11:04:20.255Z,19.33
2018-05-24T11:05:21.327Z,19.00
2018-05-24T11:06:23.217Z,18.30
2018-05-24T11:07:24.307Z,21.67
2018-05-24T11:08:25.377Z,18.60
2018-05-24T11:09:26.463Z,18.37
2018-05-24T11:10:27.545Z,20.62
2018-05-24T11:11:28.629Z,20.83
2018-05-24T11:12:29.708Z,18.37
2018-05-24T11:13:30.765Z,23.40
2018-05-24T11:14:31.858Z,22.02
2018-05-24T11:15:32.919Z,18.90
2018-05-24T11:16:34.015Z,20.00
2018-05-24T11:17:35.112Z,20.88
2018-05-24T11:18:37.131Z,21.37
2018-05-24T11:19:38.916Z,24.85
2018-05-24T11:20:40.731Z,21.37
2018-05-24T11:21:41.811Z,21.70
2018-05-24T11:22:43.623Z,21.80
2018-05-24T11:23:44.713Z,24.27
2018-05-24T11:24:45.800Z,22.77
2018-05-24T11:25:47.310Z,21.50
2018-05-24T11:26:48.370Z,22.48
2018-05-24T11:27:49.452Z,23.30
2018-05-24T11:28:50.523Z,22.20
2018-05-24T11:29:51.599Z,18.87
2018-05-24T11:30:53.448Z,22.30
2018-05-24T11:31:54.610Z,21.17
2018-05-24T11:32:55.677Z,16.92
2018-05-24T11:33:57.688Z,17.10
2018-05-24T11:34:58.782Z,18.55
2018-05-24T11:35:59.873Z,17.45
2018-05-24T11:37:01.003Z,18.87
2018-05-24T11:38:02.007Z,20.52
2018-05-24T11:39:03.159Z,19.90
2018-05-24T11:40:04.295Z,22.13
2018-05-24T11:41:05.407Z,16.95
2018-05-24T11:42:08.072Z,17.50
2018-05-24T11:43:09.932Z,17.87
2018-05-24T11:44:11.739Z,20.85
2018-05-24T11:45:12.810Z,18.55
2018-05-24T11:46:13.884Z,13.98
2018-05-24T11:47:14.979Z,18.20
2018-05-24T11:48:16.055Z,18.80
2018-05-24T11:49:17.675Z,19.10
2018-05-24T11:50:18.743Z,17.30
2018-05-24T11:51:19.813Z,14.77
2018-05-24T11:52:20.877Z,16.05
2018-05-24T11:53:21.967Z,17.83
2018-05-24T11:54:23.075Z,18.25
2018-05-24T11:55:24.135Z,18.55
2018-05-24T11:56:25.223Z,16.67
2018-05-24T11:57:26.303Z,17.87
2018-05-24T11:58:27.599Z,20.12
2018-05-24T11:59:28.727Z,16.58
2018-05-24T12:00:29.803Z,17.10
2018-05-24T12:01:31.622Z,15.88
2018-05-24T12:02:32.702Z,14.90
2018-05-24T12:03:33.811Z,16.17
2018-05-24T12:04:34.855Z,15.35
2018-05-24T12:05:35.923Z,20.80
2018-05-24T12:06:36.983Z,13.68
2018-05-24T12:07:38.370Z,15.13
2018-05-24T12:08:39.476Z,18.35
2018-05-24T12:09:40.654Z,15.27
2018-05-24T12:10:41.643Z,18.58
2018-05-24T12:11:42.727Z,15.30
2018-05-24T12:12:43.803Z,18.60
2018-05-24T12:13:44.891Z,15.25
2018-05-24T12:14:45.955Z,16.37
2018-05-24T12:15:47.056Z,15.43
2018-05-24T12:16:48.140Z,16.05
2018-05-24T12:17:49.982Z,20.08
2018-05-24T12:18:51.798Z,17.23
2018-05-24T12:19:52.847Z,17.73
2018-05-24T12:20:53.914Z,16.05
2018-05-24T12:21:55.740Z,17.50
2018-05-24T12:22:56.790Z,16.05
2018-05-24T12:23:58.606Z,14.87
2018-05-24T12:24:59.679Z,17.02
2018-05-24T12:26:00.758Z,16.90
2018-05-24T12:27:01.824Z,17.98
2018-05-24T12:28:02.919Z,17.33
2018-05-24T12:29:04.060Z,18.20
2018-05-24T12:30:05.019Z,15.93
2018-05-24T12:31:06.822Z,19.35
2018-05-24T12:32:08.622Z,19.83
2018-05-24T12:33:10.444Z,18.55
2018-05-24T12:34:11.533Z,20.40
2018-05-24T12:35:12.652Z,17.12
2018-05-24T12:36:13.698Z,25.75
2018-05-24T12:37:15.525Z,18.37
2018-05-24T12:38:17.318Z,17.98
2018-05-24T12:39:18.392Z,18.62
2018-05-24T12:40:19.419Z,16.17
2018-05-24T12:41:20.467Z,19.75
2018-05-24T12:42:21.539Z,13.65
2018-05-24T12:43:22.619Z,18.52
2018-05-24T12:44:23.715Z,16.65
2018-05-24T12:45:24.796Z,17.00
2018-05-24T12:46:25.827Z,14.95
2018-05-24T12:47:26.911Z,18.87
2018-05-24T12:48:28.003Z,13.40
2018-05-24T12:49:29.108Z,15.52
2018-05-24T12:50:30.165Z,17.08
2018-05-24T12:51:31.215Z,17.10
2018-05-24T12:52:32.282Z,17.35
2018-05-24T12:53:33.358Z,14.00
2018-05-24T12:54:35.176Z,15.73
2018-05-24T12:55:36.252Z,17.90
2018-05-24T12:56:37.312Z,15.45
2018-05-24T12:57:38.398Z,14.70
2018-05-24T12:58:39.475Z,14.13
2018-05-24T12:59:40.554Z,18.98
2018-05-24T13:00:41.631Z,18.87
2018-05-24T13:01:42.714Z,16.70
2018-05-24T13:02:43.774Z,13.95
2018-05-24T13:03:44.866Z,16.60
2018-05-24T13:04:45.971Z,16.48
2018-05-24T13:05:47.050Z,18.23
2018-05-24T13:06:48.151Z,23.80
2018-05-24T13:07:49.221Z,18.87
2018-05-24T13:08:50.298Z,21.98
2018-05-24T13:09:51.454Z,18.27
2018-05-24T13:10:52.428Z,22.60
2018-05-24T13:11:53.523Z,18.98
2018-05-24T13:12:54.582Z,21.35